Time;durP1;ratioP1;P1;durP2;ratioP2;P2;SDS_P1;SDS_P2;PMS_P1;PMS_P2;Temp;Humidity;BMP_temperature;BMP_pressure;BME280_temperature;BME280_humidity;BME280_pressure;Samples;Min_cycle;Max_cycle;Signal;HPM_P1;HPM_P2
2021/08/10 00:02:38;;;;;;;5.40;3.10;;;;;;;9.65;87.06;91133.16;5017154;28;20021;-84
2021/08/10 00:05:24;;;;;;;6.03;2.58;;;;;;;9.64;86.57;91133.44;5034018;28;20033;-85
2021/08/10 00:08:01;;;;;;;6.35;2.65;;;;;;;9.69;87.22;91131.44;5018666;28;20025;-85
2021/08/10 00:10:35;;;;;;;4.90;2.67;;;;;;;9.73;86.92;91127.13;5032793;28;20496;-85
2021/08/10 00:13:11;;;;;;;5.38;3.10;;;;;;;9.87;86.83;91126.88;5017089;28;20029;-85
2021/08/10 00:15:53;;;;;;;5.72;2.75;;;;;;;9.70;84.78;91126.97;5033000;28;20108;-85
2021/08/10 00:18:30;;;;;;;3.90;2.50;;;;;;;9.60;84.56;91125.50;5032999;28;20026;-85
2021/08/10 00:21:09;;;;;;;5.07;2.25;;;;;;;9.44;84.76;91124.56;5032824;28;20057;-85
2021/08/10 00:23:48;;;;;;;4.88;2.50;;;;;;;9.30;85.29;91111.78;5017697;28;20021;-85
2021/08/10 00:26:28;;;;;;;6.93;2.85;;;;;;;9.38;85.81;91116.16;5030986;28;20021;-85
2021/08/10 00:29:09;;;;;;;2.88;2.22;;;;;;;9.41;86.13;91114.78;5032961;28;20029;-85
2021/08/10 00:31:48;;;;;;;5.40;3.08;;;;;;;9.65;86.81;91119.38;5016022;28;20029;-85
2021/08/10 00:34:27;;;;;;;5.00;2.83;;;;;;;9.44;86.61;91114.91;5048453;28;20505;-86
2021/08/10 00:37:08;;;;;;;5.47;2.53;;;;;;;9.52;87.21;91116.69;5016160;28;20064;-85
2021/08/10 00:39:46;;;;;;;6.95;2.80;;;;;;;9.47;86.74;91106.47;5032559;28;20104;-85
2021/08/10 00:42:26;;;;;;;7.22;2.85;;;;;;;9.54;86.28;91119.75;5016201;28;20484;-85
2021/08/10 00:45:00;;;;;;;5.97;2.42;;;;;;;9.60;86.48;91124.75;5032521;28;20021;-85
2021/08/10 00:47:39;;;;;;;3.95;2.70;;;;;;;9.57;87.32;91118.34;5032367;28;20021;-85
2021/08/10 00:50:14;;;;;;;6.43;2.63;;;;;;;9.54;87.45;91119.75;5016582;28;20033;-85
2021/08/10 00:52:51;;;;;;;7.18;3.25;;;;;;;9.56;88.04;91127.97;5000415;28;20038;-85
2021/08/10 00:55:31;;;;;;;5.78;2.60;;;;;;;9.65;87.47;91120.13;5032151;28;20026;-86
2021/08/10 00:58:18;;;;;;;6.05;2.50;;;;;;;9.66;87.36;91131.31;5032654;28;20478;-85
2021/08/10 01:00:59;;;;;;;5.38;3.03;;;;;;;9.63;88.34;91126.72;5032155;28;20104;-85
2021/08/10 01:03:39;;;;;;;5.00;2.70;;;;;;;9.64;88.02;91123.78;5000379;28;20563;-85
2021/08/10 01:06:14;;;;;;;5.63;2.90;;;;;;;9.71;87.95;91129.25;5033766;28;20120;-84
2021/08/10 01:09:03;;;;;;;4.25;2.58;;;;;;;9.63;87.84;91135.28;5015813;28;20029;-85
2021/08/10 01:11:45;;;;;;;6.95;3.17;;;;;;;9.56;87.68;91129.81;5032019;28;20104;-84
2021/08/10 01:14:45;;;;;;;5.30;2.90;;;;;;;9.52;88.25;91131.53;5000672;28;20078;-85
2021/08/10 01:17:22;;;;;;;6.88;2.80;;;;;;;9.51;88.89;91130.78;5031768;28;20022;-84
2021/08/10 01:20:15;;;;;;;6.43;2.97;;;;;;;9.64;88.91;91130.84;5033539;28;20029;-85
2021/08/10 01:22:54;;;;;;;4.68;3.03;;;;;;;9.57;88.84;91126.13;5032220;28;20025;-85
2021/08/10 01:25:34;;;;;;;6.68;3.15;;;;;;;9.51;89.35;91125.56;5019231;28;20021;-85
2021/08/10 01:28:37;;;;;;;7.13;2.90;;;;;;;9.64;89.66;91125.63;5051526;28;20106;-85
2021/08/10 01:31:16;;;;;;;6.60;3.20;;;;;;;9.60;88.60;91132.56;5051473;28;20021;-85
2021/08/10 01:33:56;;;;;;;4.53;2.78;;;;;;;9.58;88.87;91127.69;5035205;28;20021;-85
2021/08/10 01:36:32;;;;;;;6.45;2.85;;;;;;;9.66;88.48;91131.31;5046045;28;20016;-86
2021/08/10 01:39:07;;;;;;;5.15;2.88;;;;;;;9.58;88.28;91125.84;5024440;28;20060;-86
2021/08/10 01:41:43;;;;;;;7.80;3.00;;;;;;;9.49;87.83;91122.53;5055306;28;20036;-87
2021/08/10 01:44:22;;;;;;;4.57;3.10;;;;;;;9.41;88.43;91118.13;5050616;28;20029;-84
2021/08/10 01:46:59;;;;;;;6.25;2.97;;;;;;;9.53;88.24;91120.81;5046175;28;20531;-85
2021/08/10 01:49:38;;;;;;;4.63;2.72;;;;;;;9.45;87.10;91119.03;5035094;28;20021;-85
2021/08/10 01:52:18;;;;;;;3.67;2.63;;;;;;;9.34;86.99;91115.28;5018632;28;20678;-85
2021/08/10 01:54:56;;;;;;;5.50;2.65;;;;;;;9.34;88.11;91125.69;5035815;28;20017;-85
2021/08/10 01:57:34;;;;;;;5.55;2.60;;;;;;;9.35;87.64;91114.19;5035564;28;20021;-85
2021/08/10 02:00:12;;;;;;;5.15;2.58;;;;;;;9.39;88.39;91125.47;5034886;28;20021;-85
2021/08/10 02:02:49;;;;;;;6.07;2.85;;;;;;;9.33;87.46;91113.75;5051606;28;20024;-84
2021/08/10 02:05:29;;;;;;;5.53;3.05;;;;;;;9.28;88.33;91109.47;5034880;28;20115;-85
2021/08/10 02:08:03;;;;;;;4.97;2.97;;;;;;;9.29;87.97;91110.25;5035581;28;20102;-84
2021/08/10 02:10:36;;;;;;;5.35;2.70;;;;;;;9.27;88.48;91109.81;5034691;28;20021;-85
2021/08/10 02:13:14;;;;;;;5.80;2.60;;;;;;;9.28;87.97;91106.13;5051283;28;20036;-85
2021/08/10 02:15:50;;;;;;;5.40;2.70;;;;;;;9.26;87.98;91109.03;5051026;28;20036;-85
2021/08/10 02:18:26;;;;;;;5.10;2.75;;;;;;;9.20;88.29;91109.53;5034489;28;20021;-85
2021/08/10 02:21:02;;;;;;;6.63;2.90;;;;;;;9.15;87.58;91107.88;5035088;28;20033;-85
2021/08/10 02:23:35;;;;;;;4.15;2.53;;;;;;;9.12;87.61;91105.13;5018483;28;20032;-85
2021/08/10 02:26:11;;;;;;;5.75;2.80;;;;;;;9.12;87.95;91107.72;5031156;28;20492;-85
2021/08/10 02:28:48;;;;;;;5.70;2.80;;;;;;;9.17;88.68;91094.56;5015509;28;20021;-85
2021/08/10 02:31:29;;;;;;;5.00;3.05;;;;;;;9.23;88.29;91098.50;5015429;28;20022;-86
2021/08/10 02:34:06;;;;;;;8.98;2.83;;;;;;;9.20;88.45;91106.94;5031634;28;20021;-85
2021/08/10 02:36:43;;;;;;;9.32;2.90;;;;;;;9.19;88.35;91103.56;5031379;28;20022;-85
2021/08/10 02:39:26;;;;;;;7.20;2.67;;;;;;;9.08;87.75;91103.19;5015262;28;20034;-85
2021/08/10 02:41:59;;;;;;;6.93;2.70;;;;;;;9.10;88.65;91103.59;5031183;28;20025;-85
2021/08/10 02:44:34;;;;;;;8.13;2.93;;;;;;;9.01;87.65;91100.31;4999278;28;20120;-86
2021/08/10 02:47:11;;;;;;;6.22;3.30;;;;;;;8.92;86.63;91099.56;5014641;28;20041;-85
2021/08/10 02:49:51;;;;;;;7.00;2.50;;;;;;;8.98;86.72;91093.13;5015663;28;20031;-85
2021/08/10 02:52:28;;;;;;;5.13;2.67;;;;;;;8.94;86.93;91102.63;5030527;28;20029;-85
2021/08/10 02:55:08;;;;;;;4.20;2.50;;;;;;;8.91;87.15;91105.84;5015612;28;20029;-86
2021/08/10 02:58:12;;;;;;;5.95;3.05;;;;;;;8.83;87.65;91104.81;5031694;28;20421;-85
2021/08/10 03:00:52;;;;;;;5.32;2.90;;;;;;;9.06;87.83;91094.16;5031535;28;20021;-84
2021/08/10 03:03:25;;;;;;;6.32;2.92;;;;;;;8.88;88.46;91093.47;5033012;28;20030;-86
2021/08/10 03:06:02;;;;;;;5.32;3.10;;;;;;;8.97;88.86;91096.03;5003719;28;20029;-85
2021/08/10 03:08:42;;;;;;;7.05;2.90;;;;;;;8.87;89.12;91081.56;5019426;28;20120;-84
2021/08/10 03:11:21;;;;;;;5.95;2.85;;;;;;;8.91;89.16;91092.84;5019868;28;20437;-83
2021/08/10 03:13:57;;;;;;;4.00;2.67;;;;;;;8.89;89.20;91089.03;5020131;28;20025;-85
2021/08/10 03:16:31;;;;;;;6.47;3.00;;;;;;;8.90;89.13;91096.50;5036000;28;20025;-86
2021/08/10 03:19:06;;;;;;;5.85;2.92;;;;;;;8.99;88.40;91094.66;5036772;28;20037;-85
2021/08/10 03:21:44;;;;;;;5.00;2.45;;;;;;;8.77;88.34;91100.09;5035918;28;20033;-85
2021/08/10 03:24:25;;;;;;;3.67;2.50;;;;;;;8.83;88.81;91096.22;5035948;28;20025;-85
2021/08/10 03:27:00;;;;;;;5.10;2.90;;;;;;;8.68;87.45;91101.94;5048155;28;20079;-86
2021/08/10 03:29:30;;;;;;;8.35;2.50;;;;;;;8.57;86.96;91099.69;5003668;28;20056;-86
2021/08/10 03:32:06;;;;;;;4.82;2.30;;;;;;;8.46;87.15;91098.50;5036304;28;20029;-87
2021/08/10 03:34:47;;;;;;;4.43;2.42;;;;;;;8.42;86.90;91105.41;5036716;28;20021;-85
2021/08/10 03:37:24;;;;;;;4.65;2.47;;;;;;;8.50;86.35;91103.84;5020557;28;20478;-85
2021/08/10 03:40:07;;;;;;;4.32;2.85;;;;;;;8.43;87.35;91099.13;5020401;28;20029;-85
2021/08/10 03:42:48;;;;;;;4.05;2.42;;;;;;;8.29;87.48;91101.88;5036777;28;20086;-86
2021/08/10 03:45:26;;;;;;;7.38;2.80;;;;;;;8.39;88.12;91103.41;5021577;28;20025;-86
2021/08/10 03:48:03;;;;;;;6.97;2.63;;;;;;;8.46;88.47;91103.69;5020980;28;20044;-85
2021/08/10 03:50:38;;;;;;;6.03;3.00;;;;;;;8.46;90.03;91100.34;5029556;28;20052;-86
2021/08/10 03:53:16;;;;;;;4.38;2.85;;;;;;;8.42;88.33;91108.00;5037398;28;20489;-87
2021/08/10 03:55:54;;;;;;;5.93;2.90;;;;;;;8.31;87.93;91097.13;5023205;28;20029;-84
2021/08/10 03:58:32;;;;;;;5.00;2.58;;;;;;;8.32;87.05;91108.28;5036694;28;20477;-85
2021/08/10 04:01:09;;;;;;;5.65;2.90;;;;;;;8.35;86.58;91113.63;5021796;28;20489;-84
2021/08/10 04:03:48;;;;;;;4.47;2.58;;;;;;;8.12;87.42;91105.25;5017937;28;20026;-85
2021/08/10 04:06:34;;;;;;;4.13;2.40;;;;;;;8.21;87.71;91112.28;5017524;28;20026;-84
2021/08/10 04:09:08;;;;;;;5.93;3.03;;;;;;;8.12;87.94;91114.88;5033353;28;20029;-84
2021/08/10 04:11:45;;;;;;;5.47;2.80;;;;;;;8.14;87.21;91113.50;5016746;28;20087;-84
2021/08/10 04:17:04;;;;;;;4.85;2.35;;;;;;;8.17;86.58;91122.53;5100337;23;20427;-88
2021/08/10 04:19:52;;;;;;;7.18;2.38;;;;;;;8.10;86.95;91122.97;5020242;28;20032;-87
2021/08/10 04:22:32;;;;;;;4.90;2.75;;;;;;;8.02;87.13;91117.78;5053292;28;20031;-88
2021/08/10 04:25:09;;;;;;;6.13;2.40;;;;;;;8.02;87.67;91120.38;5052531;28;20024;-87
2021/08/10 04:27:41;;;;;;;4.43;2.33;;;;;;;7.96;88.79;91122.38;5037038;28;20103;-88
2021/08/10 04:30:18;;;;;;;3.85;2.60;;;;;;;7.98;88.75;91119.47;5036115;28;20037;-88
2021/08/10 04:33:00;;;;;;;4.68;2.45;;;;;;;8.01;88.86;91117.03;5037027;28;20423;-87
2021/08/10 04:35:39;;;;;;;5.18;2.58;;;;;;;8.04;88.68;91119.00;5052008;28;20025;-88
2021/08/10 04:38:18;;;;;;;6.03;2.38;;;;;;;8.10;88.57;91117.78;5037239;28;20042;-87
2021/08/10 04:40:55;;;;;;;6.65;2.75;;;;;;;8.04;87.53;91119.00;5037209;28;20028;-88
2021/08/10 04:43:34;;;;;;;10.18;3.90;;;;;;;8.08;87.26;91119.91;5037217;28;20053;-87
2021/08/10 04:46:11;;;;;;;5.97;3.00;;;;;;;8.15;87.56;91129.84;5052054;28;20021;-88
2021/08/10 04:48:44;;;;;;;4.88;2.80;;;;;;;8.20;88.85;91123.72;5036386;28;20021;-88
2021/08/10 04:51:24;;;;;;;4.47;2.63;;;;;;;8.15;88.56;91125.41;5035997;28;20116;-87
2021/08/10 04:54:05;;;;;;;3.92;2.60;;;;;;;8.20;88.81;91124.50;5020131;28;20536;-88
2021/08/10 04:56:41;;;;;;;3.95;2.50;;;;;;;8.35;87.48;91125.84;5019799;28;20473;-88
2021/08/10 04:59:18;;;;;;;3.70;2.42;;;;;;;8.30;87.20;91118.22;5019579;28;20572;-88
2021/08/10 05:01:55;;;;;;;6.43;2.90;;;;;;;8.32;88.08;91116.06;5051764;28;20401;-87
2021/08/10 05:04:34;;;;;;;4.82;2.45;;;;;;;8.41;88.80;91121.28;5036491;28;20048;-87
2021/08/10 05:07:16;;;;;;;4.70;2.80;;;;;;;8.55;88.87;91122.63;5051802;28;20477;-88
2021/08/10 05:09:54;;;;;;;5.43;2.67;;;;;;;8.58;89.06;91123.81;5036341;28;20025;-87
2021/08/10 05:12:36;;;;;;;5.40;2.80;;;;;;;8.70;88.70;91128.41;5035271;28;20029;-87
2021/08/10 05:15:14;;;;;;;5.20;2.65;;;;;;;8.80;88.99;91128.81;5034751;28;20112;-87
2021/08/10 05:17:54;;;;;;;5.80;2.42;;;;;;;8.80;89.19;91128.06;5019676;28;20128;-88
2021/08/10 05:20:31;;;;;;;4.05;2.58;;;;;;;8.98;88.70;91128.75;5019157;28;20033;-88
2021/08/10 05:23:07;;;;;;;8.07;3.17;;;;;;;8.99;89.25;91131.03;5033958;28;20589;-87
2021/08/10 05:25:44;;;;;;;6.82;3.20;;;;;;;9.01;89.24;91128.91;5050551;28;20032;-88
2021/08/10 05:28:21;;;;;;;4.80;3.13;;;;;;;9.22;88.96;91128.16;5036123;28;20016;-87
2021/08/10 05:30:58;;;;;;;7.47;2.85;;;;;;;9.33;88.13;91129.34;5036944;28;20029;-88
2021/08/10 05:33:36;;;;;;;5.32;2.80;;;;;;;9.47;88.18;91123.91;5037142;28;20196;-88
2021/08/10 05:36:12;;;;;;;4.55;2.63;;;;;;;9.57;88.50;91129.50;5018623;28;20081;-88
2021/08/10 05:38:49;;;;;;;5.80;3.30;;;;;;;9.66;88.76;91126.09;5035632;28;20240;-88
2021/08/10 05:41:29;;;;;;;6.22;3.47;;;;;;;9.66;88.93;91126.84;5018800;28;20061;-88
2021/08/10 05:44:03;;;;;;;4.88;3.03;;;;;;;9.75;89.10;91130.19;5035422;28;20025;-87
2021/08/10 05:46:42;;;;;;;6.97;2.67;;;;;;;9.88;88.55;91128.38;5034904;28;20021;-88
2021/08/10 05:49:22;;;;;;;5.78;3.00;;;;;;;10.00;88.18;91125.84;5034938;28;20025;-89
2021/08/10 05:52:00;;;;;;;5.10;2.80;;;;;;;10.11;88.18;91126.22;5035368;28;20465;-88
2021/08/10 05:54:36;;;;;;;5.95;2.90;;;;;;;10.20;87.76;91124.28;5035150;28;20194;-88
2021/08/10 05:57:13;;;;;;;5.63;2.80;;;;;;;10.33;87.43;91132.94;5034774;28;20096;-88
2021/08/10 05:59:50;;;;;;;6.43;2.83;;;;;;;10.40;87.72;91125.38;5034719;28;20028;-87
2021/08/10 06:02:26;;;;;;;4.68;2.60;;;;;;;10.51;87.60;91123.88;5034735;28;20020;-88
2021/08/10 06:05:03;;;;;;;5.72;3.00;;;;;;;10.69;88.28;91123.72;5034752;28;20108;-88
2021/08/10 06:07:38;;;;;;;5.45;2.85;;;;;;;10.88;87.74;91136.22;5050430;28;20480;-88
2021/08/10 06:10:12;;;;;;;4.78;3.00;;;;;;;11.00;87.23;91128.44;5034582;28;20029;-88
2021/08/10 06:12:48;;;;;;;6.35;2.55;;;;;;;11.12;86.26;91132.91;5051585;28;20021;-88
2021/08/10 06:15:29;;;;;;;4.25;2.75;;;;;;;11.24;85.54;91127.69;5049978;28;20104;-88
2021/08/10 06:18:11;;;;;;;4.97;2.58;;;;;;;11.44;85.31;91132.03;5050412;28;20100;-88
2021/08/10 06:20:49;;;;;;;7.20;2.65;;;;;;;11.59;84.04;91132.44;5034982;28;20049;-88
2021/08/10 06:23:23;;;;;;;4.90;2.72;;;;;;;11.67;85.83;91131.59;5034649;28;20020;-88
2021/08/10 06:26:01;;;;;;;6.95;2.95;;;;;;;11.76;84.61;91121.75;5049990;28;20031;-88
2021/08/10 06:28:39;;;;;;;7.15;3.03;;;;;;;11.91;84.46;91128.19;5034397;28;20020;-88
2021/08/10 06:31:16;;;;;;;6.03;2.97;;;;;;;11.94;84.75;91117.84;5036175;28;20028;-87
2021/08/10 06:33:55;;;;;;;6.65;2.55;;;;;;;12.12;83.01;91114.94;5034540;28;20024;-88
2021/08/10 06:36:32;;;;;;;3.78;2.42;;;;;;;12.38;82.46;91120.53;5033471;28;20037;-88
2021/08/10 06:39:08;;;;;;;6.97;2.88;;;;;;;12.48;81.60;91124.53;5033639;28;20420;-87
2021/08/10 06:41:47;;;;;;;6.43;2.55;;;;;;;12.55;81.33;91123.94;5050108;28;20025;-88
2021/08/10 06:44:21;;;;;;;4.20;2.55;;;;;;;12.65;85.89;91120.84;5050185;28;20075;-88
2021/08/10 06:46:57;;;;;;;5.25;2.85;;;;;;;12.72;87.69;91117.63;5034277;28;20489;-88
2021/08/10 06:49:38;;;;;;;6.20;2.80;;;;;;;12.75;85.59;91127.44;5014160;28;20037;-88
2021/08/10 06:52:17;;;;;;;5.90;2.95;;;;;;;12.78;84.17;91122.28;5031070;28;20021;-88
2021/08/10 06:55:01;;;;;;;6.35;2.70;;;;;;;12.88;85.18;91121.03;5030071;28;20512;-88
2021/08/10 06:57:37;;;;;;;7.15;3.40;;;;;;;13.05;85.64;91123.34;5031082;28;20017;-88
2021/08/10 07:00:14;;;;;;;8.63;3.75;;;;;;;13.32;87.30;91121.75;5014343;28;20033;-88
2021/08/10 07:02:52;;;;;;;5.65;2.97;;;;;;;13.36;83.54;91125.22;4997847;28;20393;-88
2021/08/10 07:05:28;;;;;;;3.95;3.00;;;;;;;13.77;80.50;91117.88;5013998;28;20021;-88
2021/08/10 07:08:02;;;;;;;4.40;2.88;;;;;;;13.89;83.26;91114.41;5014341;28;20429;-88
2021/08/10 07:10:39;;;;;;;8.10;3.17;;;;;;;14.14;82.82;91124.63;5029559;28;20037;-88
2021/08/10 07:13:15;;;;;;;7.55;3.22;;;;;;;14.19;82.13;91117.22;5029854;28;20030;-88
2021/08/10 07:15:51;;;;;;;4.82;3.13;;;;;;;14.38;82.38;91120.94;5041760;28;20043;-88
2021/08/10 07:18:30;;;;;;;6.15;3.28;;;;;;;14.70;80.09;91118.94;5042374;28;20081;-88
2021/08/10 07:21:03;;;;;;;5.00;3.20;;;;;;;14.92;80.29;91120.84;4997840;28;20108;-87
2021/08/10 07:23:44;;;;;;;12.55;3.42;;;;;;;15.03;73.14;91118.41;5014031;28;20026;-88
2021/08/10 07:26:24;;;;;;;8.23;3.58;;;;;;;15.10;72.39;91115.91;5039307;28;20017;-87
2021/08/10 07:28:57;;;;;;;7.10;3.60;;;;;;;15.20;73.60;91120.56;5049487;28;20021;-88
2021/08/10 07:31:40;;;;;;;7.15;3.30;;;;;;;15.31;71.98;91120.75;5017182;28;20056;-87
2021/08/10 07:34:18;;;;;;;6.60;3.22;;;;;;;15.53;69.60;91122.56;5049727;28;20017;-87
2021/08/10 07:37:01;;;;;;;5.72;3.20;;;;;;;15.62;70.23;91124.97;5017410;28;20029;-88
2021/08/10 07:39:38;;;;;;;7.88;3.08;;;;;;;15.79;69.74;91128.97;5049305;28;20045;-87
2021/08/10 07:42:13;;;;;;;7.32;3.35;;;;;;;15.96;68.08;91119.81;5050699;28;20108;-87
2021/08/10 07:44:50;;;;;;;7.95;3.70;;;;;;;16.00;68.38;91118.00;5017932;28;20075;-87
2021/08/10 07:47:27;;;;;;;7.13;2.83;;;;;;;16.13;68.26;91114.03;5034189;28;20056;-87
2021/08/10 07:50:04;;;;;;;7.40;3.00;;;;;;;16.31;66.69;91118.78;5052515;28;20028;-87
2021/08/10 07:52:41;;;;;;;7.93;2.95;;;;;;;16.33;67.41;91113.91;5053097;28;20049;-87
2021/08/10 07:55:20;;;;;;;5.38;3.15;;;;;;;16.42;66.27;91114.38;5053288;28;20389;-88
2021/08/10 07:57:56;;;;;;;8.80;2.95;;;;;;;16.47;67.51;91121.97;5037446;28;20087;-87
2021/08/10 08:00:36;;;;;;;4.78;3.00;;;;;;;16.50;66.22;91108.06;5054053;28;20111;-88
2021/08/10 08:03:13;;;;;;;7.03;3.05;;;;;;;16.68;67.01;91114.31;5037487;28;20024;-88
2021/08/10 08:05:47;;;;;;;4.50;2.97;;;;;;;16.84;64.29;91108.84;5020183;28;20031;-87
2021/08/10 08:08:24;;;;;;;7.03;2.97;;;;;;;16.85;64.65;91109.59;5052827;28;20537;-88
2021/08/10 08:10:57;;;;;;;4.10;2.42;;;;;;;16.96;64.45;91118.34;5020444;28;20060;-87
2021/08/10 08:13:35;;;;;;;7.70;2.95;;;;;;;16.97;64.06;91112.00;5052797;28;20031;-88
2021/08/10 08:16:03;;;;;;;7.78;2.90;;;;;;;16.94;64.32;91110.09;5020525;28;20048;-87
2021/08/10 08:18:45;;;;;;;6.05;2.83;;;;;;;17.07;61.41;91111.34;5019576;28;20032;-88
2021/08/10 08:21:14;;;;;;;3.88;2.53;;;;;;;17.01;61.64;91110.16;5053359;28;20099;-88
2021/08/10 08:23:54;;;;;;;8.50;2.83;;;;;;;17.11;62.36;91108.75;5035904;28;20029;-87
2021/08/10 08:26:25;;;;;;;4.50;2.65;;;;;;;17.18;61.69;91108.81;5049237;28;20036;-88
2021/08/10 08:28:59;;;;;;;6.45;2.70;;;;;;;17.30;61.37;91110.41;5000493;28;20034;-87
2021/08/10 08:31:34;;;;;;;4.78;2.83;;;;;;;17.39;61.32;91108.22;5000118;28;20028;-88
2021/08/10 08:34:11;;;;;;;6.10;2.67;;;;;;;17.54;60.66;91107.19;5032645;28;20036;-88
2021/08/10 08:36:45;;;;;;;6.20;2.40;;;;;;;17.63;60.76;91105.00;5032303;28;20583;-88
2021/08/10 08:39:22;;;;;;;4.78;2.40;;;;;;;17.67;61.26;91108.44;5016070;28;20164;-88
2021/08/10 08:42:00;;;;;;;4.47;2.50;;;;;;;17.64;59.56;91105.78;5016090;28;20067;-88
2021/08/10 08:44:40;;;;;;;6.32;2.80;;;;;;;17.80;61.13;91102.88;5000501;28;20497;-88
2021/08/10 08:47:07;;;;;;;4.28;2.40;;;;;;;17.80;58.72;91105.50;5035804;28;20035;-88
2021/08/10 08:49:34;;;;;;;5.55;2.85;;;;;;;17.86;60.05;91115.34;5035325;28;20055;-88
2021/08/10 08:52:02;;;;;;;5.88;2.78;;;;;;;17.96;59.45;91119.19;5035498;28;20385;-88
2021/08/10 08:54:32;;;;;;;4.93;2.70;;;;;;;18.00;57.57;91113.94;5052755;28;20043;-88
2021/08/10 08:57:02;;;;;;;6.25;3.00;;;;;;;17.98;58.33;91119.56;5036286;28;20490;-88
2021/08/10 08:59:29;;;;;;;5.97;2.50;;;;;;;18.29;56.75;91112.19;5036073;28;20039;-88
2021/08/10 09:01:58;;;;;;;5.47;2.63;;;;;;;18.45;53.92;91112.63;5035674;28;20025;-88
2021/08/10 09:04:24;;;;;;;4.38;2.40;;;;;;;18.69;55.86;91111.19;5036308;28;20036;-88
2021/08/10 09:06:50;;;;;;;6.55;2.67;;;;;;;18.84;53.35;91114.69;5053918;28;20021;-88
2021/08/10 09:09:28;;;;;;;6.32;2.42;;;;;;;18.66;54.31;91105.91;5053183;28;20485;-87
2021/08/10 09:11:59;;;;;;;6.30;2.50;;;;;;;18.69;52.94;91116.47;5052992;28;20075;-88
2021/08/10 09:14:52;;;;;;;4.82;2.30;;;;;;;18.68;49.93;91119.50;5052799;28;20021;-88
2021/08/10 09:17:29;;;;;;;5.57;2.90;;;;;;;18.57;53.82;91109.66;5036970;28;20087;-87
2021/08/10 09:20:07;;;;;;;4.10;2.60;;;;;;;18.67;52.48;91112.72;5036982;28;20481;-89
2021/08/10 09:22:45;;;;;;;4.65;2.38;;;;;;;18.60;51.84;91111.56;5020468;28;20423;-88
2021/08/10 09:25:23;;;;;;;6.10;2.70;;;;;;;18.58;49.20;91110.41;5053391;28;20021;-88
2021/08/10 09:28:07;;;;;;;6.38;2.53;;;;;;;18.55;50.05;91101.38;5036669;28;20108;-88
2021/08/10 09:30:43;;;;;;;5.80;2.53;;;;;;;18.69;49.23;91110.44;5037325;28;20021;-87
2021/08/10 09:33:20;;;;;;;3.95;2.28;;;;;;;18.64;49.65;91107.03;5036045;28;20025;-86
2021/08/10 09:35:56;;;;;;;5.75;2.38;;;;;;;18.77;50.42;91106.75;5052638;28;20100;-88
2021/08/10 09:38:34;;;;;;;6.00;2.42;;;;;;;18.92;48.79;91103.00;5019995;28;20505;-87
2021/08/10 09:41:06;;;;;;;3.92;2.58;;;;;;;18.95;48.62;91106.78;5037253;28;20036;-89
2021/08/10 09:43:40;;;;;;;4.28;2.50;;;;;;;18.92;49.57;91110.91;5036863;28;20055;-88
2021/08/10 09:46:09;;;;;;;;;;;;;;;19.23;50.95;91111.34;5054017;28;20025;-88
2021/08/10 09:48:46;;;;;;;4.32;2.42;;;;;;;19.38;52.14;91107.59;5053179;28;19915;-88
2021/08/10 09:51:25;;;;;;;6.45;2.33;;;;;;;19.45;48.26;91106.84;5050972;28;20021;-88
2021/08/10 09:54:10;;;;;;;7.15;2.63;;;;;;;19.49;48.27;91097.75;5068559;28;20151;-87
2021/08/10 09:57:03;;;;;;;5.25;2.70;;;;;;;19.64;50.66;91108.38;5036153;28;20025;-88
2021/08/10 09:59:56;;;;;;;6.13;2.40;;;;;;;19.85;50.71;91092.47;5019890;28;20110;-88
2021/08/10 10:02:36;;;;;;;4.95;2.25;;;;;;;19.89;51.19;91103.78;5051832;28;20104;-88
2021/08/10 10:05:11;;;;;;;5.45;2.70;;;;;;;20.03;48.34;91103.78;5051129;28;20647;-88
2021/08/10 10:07:47;;;;;;;4.50;2.20;;;;;;;20.11;47.85;91101.13;5051457;28;20017;-88
2021/08/10 10:10:29;;;;;;;7.03;3.00;;;;;;;20.05;49.65;91098.88;5035492;28;20029;-88
2021/08/10 10:13:10;;;;;;;6.43;2.88;;;;;;;20.21;48.63;91097.69;5051980;28;20021;-88
2021/08/10 10:15:47;;;;;;;5.07;2.50;;;;;;;20.10;46.86;91102.25;5069009;23;20040;-86
2021/08/10 10:18:18;;;;;;;5.15;2.40;;;;;;;20.14;48.54;91092.41;5081185;28;20036;-87
2021/08/10 10:20:57;;;;;;;5.50;2.78;;;;;;;20.14;48.92;91098.47;5062653;28;20028;-86
2021/08/10 10:23:33;;;;;;;5.75;2.70;;;;;;;20.39;49.57;91093.09;5075443;28;20052;-87
2021/08/10 10:26:12;;;;;;;5.07;2.38;;;;;;;20.46;50.21;91092.31;5053771;28;20536;-86
2021/08/10 10:28:47;;;;;;;4.57;2.45;;;;;;;20.46;50.55;91093.09;5054855;28;20400;-86
2021/08/10 10:31:23;;;;;;;7.28;2.80;;;;;;;20.56;52.42;91096.84;5070948;28;20028;-86
2021/08/10 10:33:56;;;;;;;7.13;2.72;;;;;;;20.58;50.42;91099.13;5084073;28;20111;-87
2021/08/10 10:36:29;;;;;;;4.33;2.47;;;;;;;20.56;49.60;91111.97;5081885;28;20024;-86
2021/08/10 10:39:01;;;;;;;4.53;2.60;;;;;;;20.55;49.18;91099.88;5080131;28;20028;-85
2021/08/10 10:41:39;;;;;;;6.10;2.90;;;;;;;20.56;50.00;91096.84;5064951;28;20031;-86
2021/08/10 10:44:18;;;;;;;3.47;2.40;;;;;;;20.67;52.61;91097.56;5080807;28;20028;-86
2021/08/10 10:46:54;;;;;;;6.18;2.50;;;;;;;20.61;49.41;91101.75;5079325;28;20020;-86
2021/08/10 10:49:33;;;;;;;4.40;2.35;;;;;;;20.55;50.18;91102.53;5046460;28;20043;-86
2021/08/10 10:52:19;;;;;;;6.18;2.75;;;;;;;20.56;50.05;91106.66;5079518;28;20093;-86
2021/08/10 10:54:52;;;;;;;5.72;2.50;;;;;;;20.57;51.24;91103.66;5064813;28;20074;-86
2021/08/10 10:57:43;;;;;;;3.47;2.22;;;;;;;20.72;49.76;91099.03;5071926;28;20028;-86
2021/08/10 11:00:12;;;;;;;4.03;2.22;;;;;;;20.67;50.22;91102.88;5070075;28;20024;-86
2021/08/10 11:03:05;;;;;;;7.55;2.72;;;;;;;20.79;49.70;91099.00;5070041;28;20021;-88
2021/08/10 11:05:48;;;;;;;5.82;2.30;;;;;;;20.85;50.78;91097.47;5070200;28;20488;-87
2021/08/10 11:08:46;;;;;;;4.07;2.40;;;;;;;21.01;52.01;91100.41;5070192;28;20217;-86
2021/08/10 11:11:45;;;;;;;5.43;2.40;;;;;;;20.85;49.21;91105.41;5066683;28;20565;-86
2021/08/10 11:14:46;;;;;;;4.75;2.20;;;;;;;21.09;48.56;91097.72;5071191;28;20028;-86
2021/08/10 11:17:22;;;;;;;6.93;2.70;;;;;;;21.05;49.51;91095.06;5071011;28;20056;-86
2021/08/10 11:19:59;;;;;;;5.20;2.30;;;;;;;21.09;50.98;91106.41;5069772;28;20042;-86
2021/08/10 11:22:37;;;;;;;5.07;2.60;;;;;;;21.11;48.12;91100.72;5054593;28;20401;-86
2021/08/10 11:25:22;;;;;;;5.57;2.33;;;;;;;21.17;48.30;91092.00;5056371;28;20024;-88
2021/08/10 11:27:57;;;;;;;7.15;2.50;;;;;;;21.19;47.88;91102.19;5057477;28;20013;-86
2021/08/10 11:30:32;;;;;;;5.80;2.42;;;;;;;20.97;45.68;91110.25;5057327;28;20021;-86
2021/08/10 11:33:07;;;;;;;4.15;2.60;;;;;;;20.88;44.88;91101.97;5074861;28;20066;-86
2021/08/10 11:35:38;;;;;;;3.58;2.22;;;;;;;20.88;44.19;91104.63;5074921;28;20028;-85
2021/08/10 11:38:27;;;;;;;4.45;2.22;;;;;;;20.93;44.53;91106.13;5057403;28;20016;-87
2021/08/10 11:41:05;;;;;;;5.85;2.25;;;;;;;20.64;44.11;91102.88;5073932;28;20028;-85
2021/08/10 11:43:53;;;;;;;4.78;2.05;;;;;;;20.67;43.57;91102.09;5073561;28;20020;-86
2021/08/10 11:46:27;;;;;;;4.80;2.40;;;;;;;20.77;44.53;91095.97;5058926;28;20025;-86
2021/08/10 11:49:06;;;;;;;3.33;1.83;;;;;;;20.94;43.78;91089.84;5073339;28;20511;-86
2021/08/10 11:51:42;;;;;;;4.05;2.15;;;;;;;21.18;43.58;91098.03;5073324;28;20089;-86
2021/08/10 11:54:31;;;;;;;4.07;2.00;;;;;;;20.96;44.25;91092.13;5073598;28;20436;-85
2021/08/10 11:57:12;;;;;;;4.90;2.30;;;;;;;20.82;42.80;91092.94;5076855;28;20108;-86
2021/08/10 11:59:53;;;;;;;3.55;2.10;;;;;;;21.03;43.14;91092.06;5057807;28;20032;-84
2021/08/10 12:02:29;;;;;;;4.55;2.00;;;;;;;21.19;44.17;91083.63;5073307;28;20484;-86
2021/08/10 12:05:06;;;;;;;3.30;2.20;;;;;;;21.28;45.00;91091.16;5057242;28;20085;-86
2021/08/10 12:07:37;;;;;;;6.45;2.10;;;;;;;21.32;43.61;91090.00;5057179;28;20025;-86
2021/08/10 12:10:06;;;;;;;3.80;1.90;;;;;;;21.31;40.32;91085.84;5072869;28;20028;-86
2021/08/10 12:12:46;;;;;;;5.47;1.95;;;;;;;21.24;40.88;91091.19;5073099;28;20052;-87
2021/08/10 12:15:39;;;;;;;4.18;2.28;;;;;;;21.15;42.23;91093.50;5059798;28;20107;-86
2021/08/10 12:18:14;;;;;;;4.10;2.10;;;;;;;21.26;42.67;91088.88;5072996;28;20021;-86
2021/08/10 12:21:06;;;;;;;3.80;1.92;;;;;;;21.42;43.97;91094.50;5072634;28;20025;-87
2021/08/10 12:23:48;;;;;;;4.03;2.03;;;;;;;21.42;44.31;91091.84;5073991;28;20028;-88
2021/08/10 12:26:27;;;;;;;5.45;2.22;;;;;;;21.49;43.30;91091.03;5073734;28;20107;-86
2021/08/10 12:29:04;;;;;;;3.63;2.20;;;;;;;21.67;43.33;91091.63;5040752;28;20119;-86
2021/08/10 12:31:41;;;;;;;3.63;2.17;;;;;;;21.63;43.83;91087.53;5056829;28;20650;-86